Time;durP1;ratioP1;P1;durP2;ratioP2;P2;SDS_P1;SDS_P2;PMS_P1;PMS_P2;Temp;Humidity;BMP_temperature;BMP_pressure;BME280_temperature;BME280_humidity;BME280_pressure;Samples;Min_cycle;Max_cycle;Signal;HPM_P1;HPM_P2
2022/05/10 00:01:56;;;;;;;3.60;0.40;;;;;;;5.20;60.73;100536.40;1737425;81;20923;-52
2022/05/10 00:04:23;;;;;;;1.03;0.30;;;;;;;5.13;60.91;100534.72;1732364;82;21040;-52
2022/05/10 00:06:49;;;;;;;1.13;0.30;;;;;;;5.09;61.09;100539.24;1734742;82;20943;-52
2022/05/10 00:09:20;;;;;;;0.60;0.30;;;;;;;5.06;61.19;100531.72;1733833;82;20923;-52
2022/05/10 00:11:47;;;;;;;1.00;0.40;;;;;;;5.01;61.23;100533.13;1732621;82;21985;-52
2022/05/10 00:14:13;;;;;;;0.70;0.30;;;;;;;4.95;61.38;100529.18;1729839;82;22264;-52
2022/05/10 00:16:41;;;;;;;2.87;0.40;;;;;;;4.90;61.44;100523.92;1731787;82;21085;-52
2022/05/10 00:19:11;;;;;;;0.50;0.30;;;;;;;4.85;61.53;100526.20;1727848;82;21092;-52
2022/05/10 00:21:39;;;;;;;0.53;0.30;;;;;;;4.80;61.66;100525.38;1731590;82;21265;-52
2022/05/10 00:24:06;;;;;;;0.50;0.20;;;;;;;4.74;61.82;100529.47;1709360;82;21503;-52
2022/05/10 00:26:33;;;;;;;0.43;0.20;;;;;;;4.72;62.09;100525.93;1731931;82;21041;-52
2022/05/10 00:29:01;;;;;;;0.50;0.30;;;;;;;4.71;62.31;100521.05;1728918;82;20980;-51
2022/05/10 00:31:28;;;;;;;1.17;0.30;;;;;;;4.73;62.46;100528.59;1729864;82;21103;-52
2022/05/10 00:33:54;;;;;;;0.63;0.30;;;;;;;4.75;62.60;100528.57;1730853;82;21415;-52
2022/05/10 00:36:22;;;;;;;1.33;0.30;;;;;;;4.76;62.66;100522.34;1730612;82;21117;-52
2022/05/10 00:38:49;;;;;;;0.83;0.57;;;;;;;4.77;62.69;100522.74;1734523;82;20970;-52
2022/05/10 00:41:38;;;;;;;0.63;0.30;;;;;;;4.76;62.66;100520.56;1732454;82;21102;-52
2022/05/10 00:44:27;;;;;;;1.27;0.40;;;;;;;4.77;62.79;100524.96;1711610;82;21571;-52
2022/05/10 00:47:08;;;;;;;0.47;0.30;;;;;;;4.74;62.49;100518.35;1730171;82;21431;-52
2022/05/10 00:49:41;;;;;;;1.13;0.40;;;;;;;4.69;62.38;100519.29;1727521;82;22483;-52
2022/05/10 00:52:15;;;;;;;0.90;0.33;;;;;;;4.61;62.30;100521.17;1732105;82;21046;-52
2022/05/10 00:54:56;;;;;;;0.70;0.30;;;;;;;4.54;62.32;100524.36;1732239;82;21769;-52
2022/05/10 00:57:33;;;;;;;1.47;0.40;;;;;;;4.49;62.31;100521.77;1729924;82;21081;-51
2022/05/10 01:00:11;;;;;;;0.90;0.60;;;;;;;4.44;62.50;100524.03;1730373;82;21029;-51
2022/05/10 01:03:22;;;;;;;0.63;0.33;;;;;;;4.40;62.50;100525.87;1739149;81;21536;-52
2022/05/10 01:06:03;;;;;;;0.63;0.40;;;;;;;4.34;62.37;100528.57;1740503;81;21072;-52
2022/05/10 01:08:54;;;;;;;2.57;0.40;;;;;;;4.23;62.52;100527.83;1741463;81;21105;-51
2022/05/10 01:11:34;;;;;;;0.73;0.37;;;;;;;4.12;62.43;100537.70;1739674;81;21783;-52
2022/05/10 01:14:13;;;;;;;0.70;0.40;;;;;;;4.00;62.63;100526.70;1744843;81;21035;-52
2022/05/10 01:16:39;;;;;;;1.00;0.40;;;;;;;3.91;62.78;100529.47;1742409;81;21119;-53
2022/05/10 01:19:06;;;;;;;0.87;0.40;;;;;;;3.85;63.01;100523.30;1743203;81;21041;-52
2022/05/10 01:21:57;;;;;;;0.70;0.40;;;;;;;3.78;63.12;100535.34;1743801;81;21807;-53
2022/05/10 01:25:04;;;;;;;1.30;0.40;;;;;;;3.75;63.41;100527.36;1745008;81;20963;-53
2022/05/10 01:27:45;;;;;;;0.63;0.40;;;;;;;3.75;63.72;100532.69;1679084;84;21017;-53
2022/05/10 01:30:23;;;;;;;1.20;0.50;;;;;;;3.72;63.87;100526.08;1679692;85;21071;-52
2022/05/10 01:35:46;;;;;;;0.67;0.50;;;;;;;3.72;64.29;100532.73;1681476;84;21115;-52
2022/05/10 01:38:49;;;;;;;1.20;0.40;;;;;;;3.70;64.36;100528.31;1711165;83;20922;-51
2022/05/10 01:41:43;;;;;;;1.83;0.50;;;;;;;3.69;64.47;100525.20;1679318;85;21635;-52
2022/05/10 01:44:54;;;;;;;1.73;0.60;;;;;;;3.69;64.47;100526.09;1681164;84;20970;-49
2022/05/10 01:47:28;;;;;;;1.03;0.53;;;;;;;3.66;64.47;100522.11;1690544;83;21108;-49
2022/05/10 01:50:17;;;;;;;2.22;0.70;;;;;;;3.67;64.73;100529.66;1681007;84;22723;-50
2022/05/10 01:53:14;;;;;;;2.53;0.50;;;;;;;3.67;64.83;100527.88;1683317;83;20991;-50
2022/05/10 01:55:44;;;;;;;2.50;0.60;;;;;;;3.67;64.88;100526.55;1707482;83;21099;-49
2022/05/10 01:58:20;;;;;;;1.30;0.60;;;;;;;3.63;64.94;100522.16;1706761;83;21163;-51
2022/05/10 02:00:55;;;;;;;3.07;0.60;;;;;;;3.62;65.10;100517.73;1709078;83;21514;-51
2022/05/10 02:03:34;;;;;;;1.23;0.60;;;;;;;3.61;65.23;100515.07;1675042;85;21043;-49
2022/05/10 02:06:27;;;;;;;3.73;0.70;;;;;;;3.61;65.34;100516.40;1724383;81;21081;-49
2022/05/10 02:09:07;;;;;;;2.10;0.60;;;;;;;3.59;65.35;100519.52;1738245;81;21018;-51
2022/05/10 02:11:43;;;;;;;3.13;0.57;;;;;;;3.56;65.38;100517.78;1735037;81;21089;-50
2022/05/10 02:14:28;;;;;;;2.30;0.60;;;;;;;3.53;65.39;100515.58;1737562;81;21086;-48
2022/05/10 02:17:02;;;;;;;3.87;0.97;;;;;;;3.48;65.36;100516.08;1645948;86;21877;-49
2022/05/10 02:19:34;;;;;;;1.90;0.70;;;;;;;3.36;65.52;100516.59;1739843;81;21102;-49
2022/05/10 02:22:08;;;;;;;4.13;0.80;;;;;;;3.36;65.52;100516.59;1737263;81;21053;-49
2022/05/10 02:24:58;;;;;;;2.90;0.70;;;;;;;3.36;65.71;100522.36;1742099;81;20974;-49
2022/05/10 02:27:36;;;;;;;2.07;0.80;;;;;;;3.32;65.82;100518.82;1742459;81;21029;-48
2022/05/10 02:30:07;;;;;;;2.90;0.90;;;;;;;3.28;65.87;100521.08;1740807;81;21746;-50
2022/05/10 02:35:22;;;;;;;8.77;1.80;;;;;;;3.22;66.09;100524.23;1740156;81;20894;-49
2022/05/10 02:37:48;;;;;;;5.57;1.30;;;;;;;3.20;66.22;100527.34;1742061;81;20920;-51
2022/05/10 02:40:15;;;;;;;4.93;1.00;;;;;;;3.17;66.28;100522.03;1742472;81;21420;-48
2022/05/10 02:42:45;;;;;;;3.70;1.00;;;;;;;3.13;66.28;100523.84;1741746;81;22195;-50
2022/05/10 02:45:12;;;;;;;4.30;1.00;;;;;;;3.10;66.38;100522.97;1742035;81;21058;-49
2022/05/10 02:47:40;;;;;;;3.20;0.97;;;;;;;3.06;66.48;100527.88;1742337;81;20906;-49
2022/05/10 02:50:15;;;;;;;4.97;0.80;;;;;;;3.01;66.58;100528.77;1742183;81;20877;-49
2022/05/10 02:52:42;;;;;;;2.83;0.80;;;;;;;3.01;66.77;100531.44;1740313;81;21020;-50
2022/05/10 02:55:19;;;;;;;1.77;0.70;;;;;;;3.01;66.96;100535.42;1743720;81;21058;-49
2022/05/10 02:57:47;;;;;;;2.57;0.80;;;;;;;3.05;67.31;100529.66;1740525;81;20898;-49
2022/05/10 03:00:13;;;;;;;2.23;0.67;;;;;;;3.13;67.65;100526.95;1742589;81;21030;-51
2022/05/10 03:02:43;;;;;;;4.83;0.90;;;;;;;3.19;67.97;100531.78;1737655;81;20915;-51
2022/05/10 03:05:11;;;;;;;1.97;0.80;;;;;;;3.25;68.20;100526.41;1712901;82;21082;-48
2022/05/10 03:07:38;;;;;;;3.60;1.00;;;;;;;3.31;68.31;100529.50;1686261;82;22572;-51
2022/05/10 03:10:08;;;;;;;2.13;1.00;;;;;;;3.35;68.46;100531.23;1729905;82;21043;-49
2022/05/10 03:12:35;;;;;;;2.13;0.80;;;;;;;3.40;68.61;100525.45;1732107;82;21050;-50
2022/05/10 03:15:05;;;;;;;4.03;0.97;;;;;;;3.43;68.93;100520.97;1735266;82;20926;-50
2022/05/10 03:17:33;;;;;;;2.30;1.10;;;;;;;3.49;69.03;100524.02;1732922;82;21449;-50
2022/05/10 03:19:59;;;;;;;4.30;1.00;;;;;;;3.51;69.03;100523.56;1730249;82;21230;-49
2022/05/10 03:22:25;;;;;;;2.40;0.90;;;;;;;3.51;69.05;100522.69;1730385;82;21101;-50
2022/05/10 03:24:52;;;;;;;9.43;1.20;;;;;;;3.54;69.25;100526.22;1730307;82;21079;-49
2022/05/10 03:27:19;;;;;;;3.73;0.83;;;;;;;3.60;69.41;100527.50;1730221;82;21653;-49
2022/05/10 03:29:45;;;;;;;5.13;0.80;;;;;;;3.67;69.57;100526.99;1731258;82;21073;-49
2022/05/10 03:32:12;;;;;;;4.03;0.80;;;;;;;3.76;69.92;100530.47;1730379;82;21153;-48
2022/05/10 03:37:25;;;;;;;5.75;0.78;;;;;;;3.97;70.35;100532.52;1728325;82;21055;-51
2022/05/10 03:39:51;;;;;;;3.13;1.03;;;;;;;4.09;70.61;100532.38;1660260;85;21880;-49
2022/05/10 03:42:19;;;;;;;5.37;1.17;;;;;;;4.21;70.83;100528.73;1728951;82;21089;-50
2022/05/10 03:44:55;;;;;;;9.73;1.70;;;;;;;4.32;71.01;100529.06;1729007;82;21151;-50
2022/05/10 03:47:24;;;;;;;12.73;4.90;;;;;;;4.44;71.08;100528.91;1733240;82;20866;-49
2022/05/10 03:49:51;;;;;;;15.47;5.27;;;;;;;4.56;71.21;100531.45;1733996;82;20910;-50
2022/05/10 03:52:17;;;;;;;10.83;4.33;;;;;;;4.71;71.26;100532.16;1734434;82;21405;-50
2022/05/10 03:54:45;;;;;;;22.37;8.03;;;;;;;4.84;71.17;100526.67;1735554;82;20987;-50
2022/05/10 03:57:12;;;;;;;20.67;7.63;;;;;;;4.98;70.96;100526.94;1732054;82;21185;-49
2022/05/10 03:59:41;;;;;;;19.70;7.67;;;;;;;5.12;70.54;100525.83;1695845;83;21098;-51
2022/05/10 04:02:11;;;;;;;16.87;7.97;;;;;;;5.26;70.29;100521.66;1694160;83;21447;-51
2022/05/10 04:04:37;;;;;;;16.93;7.90;;;;;;;5.41;69.98;100524.55;1700830;83;22859;-51
2022/05/10 04:07:04;;;;;;;20.50;10.07;;;;;;;5.54;69.36;100524.77;1738273;81;21069;-50
2022/05/10 04:09:30;;;;;;;22.77;9.67;;;;;;;5.68;68.67;100522.34;1739065;81;21093;-50
2022/05/10 04:11:57;;;;;;;18.67;8.67;;;;;;;5.89;68.21;100522.90;1737555;81;21093;-49
2022/05/10 04:14:25;;;;;;;21.00;8.37;;;;;;;6.09;67.86;100526.13;1738487;81;21255;-50
2022/05/10 04:16:52;;;;;;;21.07;7.60;;;;;;;6.32;67.37;100520.34;1738238;81;21145;-51
2022/05/10 04:19:18;;;;;;;15.90;7.17;;;;;;;6.54;66.67;100526.18;1737494;81;21282;-50
2022/05/10 04:21:45;;;;;;;17.97;7.63;;;;;;;6.75;65.66;100517.25;1737830;81;22463;-50
2022/05/10 04:24:11;;;;;;;19.73;7.73;;;;;;;6.93;64.89;100520.46;1739126;81;21073;-49
2022/05/10 04:26:38;;;;;;;15.80;6.60;;;;;;;7.08;64.09;100522.34;1737136;81;21097;-49
2022/05/10 04:29:05;;;;;;;29.20;7.80;;;;;;;7.27;63.48;100525.50;1735957;81;21099;-49
2022/05/10 04:31:31;;;;;;;18.23;7.57;;;;;;;7.48;63.01;100521.01;1737862;81;21116;-49
2022/05/10 04:33:58;;;;;;;16.73;7.20;;;;;;;7.59;61.59;100526.97;1737291;81;21188;-50
2022/05/10 04:36:25;;;;;;;20.13;7.87;;;;;;;7.68;60.41;100521.84;1738275;81;21458;-51
2022/05/10 04:38:51;;;;;;;18.73;8.70;;;;;;;7.76;59.52;100521.20;1736442;81;21372;-50
2022/05/10 04:41:25;;;;;;;18.03;8.10;;;;;;;7.83;58.96;100521.47;1737792;81;21213;-51
2022/05/10 04:44:04;;;;;;;20.70;8.40;;;;;;;7.92;58.79;100519.02;1738045;81;20955;-50
2022/05/10 04:46:31;;;;;;;19.23;7.37;;;;;;;8.02;58.68;100519.66;1736923;81;21112;-50
2022/05/10 04:48:58;;;;;;;14.33;7.80;;;;;;;8.15;58.54;100515.77;1737568;81;21133;-51
2022/05/10 04:51:25;;;;;;;17.57;8.63;;;;;;;8.27;58.33;100515.42;1738361;81;21341;-52
2022/05/10 04:53:53;;;;;;;15.63;6.83;;;;;;;8.39;58.22;100507.55;1739900;81;21405;-50
2022/05/10 04:56:19;;;;;;;17.17;7.00;;;;;;;8.53;58.05;100506.70;1737889;81;21103;-52
2022/05/10 04:58:46;;;;;;;14.67;6.20;;;;;;;8.66;57.92;100507.67;1736256;81;21551;-52
2022/05/10 05:01:16;;;;;;;14.83;5.83;;;;;;;8.80;57.55;100505.91;1737627;81;21045;-50
2022/05/10 05:03:44;;;;;;;12.80;5.30;;;;;;;8.94;57.05;100503.70;1708900;81;20951;-52
2022/05/10 05:06:10;;;;;;;10.20;5.57;;;;;;;9.06;56.45;100502.00;1689515;84;20879;-52
2022/05/10 05:08:39;;;;;;;16.63;5.17;;;;;;;9.18;56.07;100505.25;1689662;84;21076;-51
2022/05/10 05:11:05;;;;;;;11.37;4.13;;;;;;;9.29;55.80;100501.75;1687802;84;21460;-52
2022/05/10 05:13:31;;;;;;;10.63;4.07;;;;;;;9.40;55.35;100500.95;1689130;84;21093;-51
2022/05/10 05:15:58;;;;;;;13.27;5.93;;;;;;;9.52;55.06;100503.73;1686311;84;21045;-51
2022/05/10 05:18:24;;;;;;;8.03;4.53;;;;;;;9.62;54.80;100505.17;1685791;84;21112;-51
2022/05/10 05:20:52;;;;;;;7.77;3.67;;;;;;;9.72;54.88;100507.52;1686300;84;21089;-50
2022/05/10 05:23:21;;;;;;;9.13;4.20;;;;;;;9.85;54.73;100505.31;1683326;84;21138;-53
2022/05/10 05:25:48;;;;;;;9.53;3.10;;;;;;;9.99;54.21;100500.80;1686647;84;21085;-52
2022/05/10 05:28:15;;;;;;;5.67;2.27;;;;;;;10.09;53.79;100494.19;1686446;84;21097;-51
2022/05/10 05:30:42;;;;;;;8.43;2.83;;;;;;;10.20;52.89;100495.62;1690149;84;21035;-53
2022/05/10 05:33:09;;;;;;;6.83;2.97;;;;;;;10.31;51.88;100488.48;1687868;84;20950;-50
2022/05/10 05:35:36;;;;;;;5.70;2.57;;;;;;;10.43;51.79;100488.06;1691420;84;21066;-52
2022/05/10 05:38:03;;;;;;;10.40;3.00;;;;;;;10.54;51.52;100482.30;1690623;84;21001;-51
2022/05/10 05:40:29;;;;;;;7.33;3.03;;;;;;;10.65;51.21;100482.77;1689474;84;21406;-52
2022/05/10 05:42:56;;;;;;;4.17;1.33;;;;;;;10.75;51.12;100482.84;1686535;84;20979;-53
2022/05/10 05:45:23;;;;;;;8.07;1.83;;;;;;;10.87;49.89;100486.43;1689264;84;20891;-52
2022/05/10 05:47:51;;;;;;;10.90;3.47;;;;;;;10.99;49.40;100487.76;1690723;83;21095;-51
2022/05/10 05:50:21;;;;;;;8.50;3.17;;;;;;;11.10;48.83;100476.58;1690884;84;21024;-53
2022/05/10 05:52:48;;;;;;;6.62;2.87;;;;;;;11.19;48.66;100474.87;1689241;84;21540;-52
2022/05/10 05:55:17;;;;;;;6.20;2.60;;;;;;;11.28;48.34;100474.52;1688127;84;21062;-51
2022/05/10 05:57:44;;;;;;;7.03;2.20;;;;;;;11.37;48.01;100473.68;1689867;84;20903;-53
2022/05/10 06:00:14;;;;;;;7.47;2.25;;;;;;;11.47;47.33;100476.01;1689422;84;21182;-53
2022/05/10 06:02:41;;;;;;;7.42;2.35;;;;;;;11.55;46.96;100470.72;1692125;82;21334;-52
2022/05/10 06:05:07;;;;;;;6.47;1.72;;;;;;;11.65;46.56;100472.56;1731904;82;20877;-52
2022/05/10 06:07:35;;;;;;;3.40;1.37;;;;;;;11.71;45.45;100466.91;1732235;82;20879;-53
2022/05/10 06:10:02;;;;;;;4.72;1.67;;;;;;;11.79;43.43;100469.32;1733042;82;20883;-53
2022/05/10 06:12:30;;;;;;;6.42;2.10;;;;;;;11.82;42.91;100466.50;1732104;82;20919;-53
2022/05/10 06:14:59;;;;;;;2.90;1.07;;;;;;;11.87;43.32;100465.36;1734543;82;20943;-52
2022/05/10 06:17:25;;;;;;;4.15;1.20;;;;;;;11.94;41.88;100471.36;1732939;82;21078;-52
2022/05/10 06:19:51;;;;;;;2.83;1.10;;;;;;;11.99;40.73;100463.97;1732342;82;21529;-53
2022/05/10 06:22:18;;;;;;;1.45;0.80;;;;;;;12.02;40.41;100453.91;1732116;82;21112;-53
2022/05/10 06:24:45;;;;;;;1.77;0.50;;;;;;;12.07;40.06;100461.82;1728950;82;22197;-53
2022/05/10 06:27:14;;;;;;;0.72;0.50;;;;;;;12.13;39.15;100461.08;1731311;82;21456;-52
2022/05/10 06:29:41;;;;;;;1.65;0.72;;;;;;;12.20;38.90;100458.98;1730390;82;21105;-54
2022/05/10 06:32:07;;;;;;;1.98;0.70;;;;;;;12.27;38.90;100453.71;1729658;82;21506;-53
2022/05/10 06:34:34;;;;;;;1.27;0.70;;;;;;;12.35;37.75;100454.72;1731624;82;21012;-53
2022/05/10 06:37:01;;;;;;;1.95;0.78;;;;;;;12.43;38.08;100453.91;1731745;82;21760;-53
2022/05/10 06:39:27;;;;;;;2.65;0.70;;;;;;;12.49;37.92;100462.63;1731940;82;21071;-52
2022/05/10 06:41:54;;;;;;;1.25;0.70;;;;;;;12.54;38.06;100451.61;1730472;82;21486;-53
2022/05/10 06:44:20;;;;;;;1.55;0.50;;;;;;;12.61;38.32;100453.08;1732523;82;21045;-54
2022/05/10 06:46:46;;;;;;;1.30;0.57;;;;;;;12.69;38.09;100444.63;1731171;82;21603;-53
2022/05/10 06:49:13;;;;;;;1.65;0.50;;;;;;;12.77;37.19;100447.84;1732409;82;21262;-53
2022/05/10 06:51:39;;;;;;;1.45;0.70;;;;;;;12.83;36.41;100447.59;1730380;82;21100;-54
2022/05/10 06:54:06;;;;;;;1.07;0.65;;;;;;;12.87;35.99;100442.42;1730917;82;21134;-53
2022/05/10 06:56:33;;;;;;;2.22;0.60;;;;;;;12.93;35.86;100444.83;1731619;82;21590;-54
2022/05/10 06:58:59;;;;;;;1.82;0.68;;;;;;;12.98;35.35;100444.63;1729695;82;21058;-53
2022/05/10 07:01:26;;;;;;;2.35;0.60;;;;;;;13.01;33.64;100445.85;1732595;82;22539;-54
2022/05/10 07:03:52;;;;;;;1.45;0.70;;;;;;;13.03;33.96;100442.58;1727474;82;21066;-53
2022/05/10 07:06:22;;;;;;;2.58;0.60;;;;;;;13.05;32.71;100442.92;1709113;82;21090;-53
2022/05/10 07:08:49;;;;;;;3.67;0.50;;;;;;;13.04;32.71;100435.75;1709904;82;20997;-53
2022/05/10 07:11:15;;;;;;;1.00;0.57;;;;;;;13.04;31.85;100432.17;1715245;82;21746;-54
2022/05/10 07:13:42;;;;;;;1.45;0.40;;;;;;;13.05;32.80;100425.34;1709114;82;21700;-54
2022/05/10 07:17:38;;;;;;;1.30;0.40;;;;;;;13.22;31.95;100424.57;1777648;78;22679;-53
2022/05/10 07:20:07;;;;;;;1.00;0.40;;;;;;;13.27;32.33;100424.37;1738411;80;21009;-52
2022/05/10 07:22:34;;;;;;;0.98;0.40;;;;;;;13.33;31.87;100427.64;1736658;80;21315;-52
2022/05/10 07:25:01;;;;;;;1.30;0.50;;;;;;;13.36;31.65;100418.00;1740884;80;20938;-53
2022/05/10 07:27:27;;;;;;;0.55;0.40;;;;;;;13.40;31.68;100420.09;1740103;80;20954;-53
2022/05/10 07:29:53;;;;;;;0.60;0.30;;;;;;;13.45;31.41;100409.91;1708759;81;21053;-51
2022/05/10 07:32:20;;;;;;;0.80;0.57;;;;;;;13.49;31.36;100416.47;1702245;81;21108;-52
2022/05/10 07:34:47;;;;;;;3.40;0.80;;;;;;;13.51;30.09;100410.98;1708647;81;21114;-51
2022/05/10 07:37:13;;;;;;;2.45;0.70;;;;;;;13.50;30.11;100406.05;1700896;81;20977;-52
2022/05/10 07:39:40;;;;;;;1.35;0.60;;;;;;;13.50;30.38;100404.70;1708378;81;21000;-51
2022/05/10 07:42:06;;;;;;;3.85;1.30;;;;;;;13.53;30.78;100401.82;1708076;81;20933;-52
2022/05/10 07:44:34;;;;;;;2.02;0.98;;;;;;;13.59;30.60;100402.01;1704880;81;21050;-53
2022/05/10 07:47:00;;;;;;;7.80;1.45;;;;;;;13.62;31.02;100393.25;1708609;81;21716;-51
2022/05/10 07:49:27;;;;;;;5.17;1.40;;;;;;;13.69;30.77;100404.66;1707942;81;20957;-54
2022/05/10 07:51:54;;;;;;;6.87;1.60;;;;;;;13.73;30.44;100403.53;1711272;81;20906;-53
2022/05/10 07:54:20;;;;;;;5.28;1.77;;;;;;;13.76;30.41;100391.69;1710972;81;20980;-52
2022/05/10 07:56:48;;;;;;;3.80;1.50;;;;;;;13.78;30.38;100385.22;1705089;81;21806;-52
2022/05/10 07:59:15;;;;;;;6.58;1.00;;;;;;;13.81;30.16;100377.43;1682578;83;21159;-52
2022/05/10 08:01:42;;;;;;;2.83;1.27;;;;;;;13.86;30.47;100380.80;1683005;83;21049;-53
2022/05/10 08:04:08;;;;;;;5.90;2.10;;;;;;;13.93;30.50;100382.22;1681952;83;21578;-51
2022/05/10 08:06:35;;;;;;;3.95;1.50;;;;;;;14.02;30.48;100370.92;1681458;83;21080;-52
2022/05/10 08:09:01;;;;;;;3.10;1.35;;;;;;;14.10;30.65;100371.39;1681274;83;21519;-52
2022/05/10 08:11:28;;;;;;;5.28;1.65;;;;;;;14.16;29.40;100371.05;1681547;83;21155;-51
2022/05/10 08:13:54;;;;;;;5.33;1.55;;;;;;;14.16;29.73;100358.87;1676354;83;21386;-53
2022/05/10 08:16:21;;;;;;;3.60;1.32;;;;;;;14.20;29.77;100369.07;1678263;83;21659;-53
2022/05/10 08:18:48;;;;;;;4.75;1.20;;;;;;;14.23;29.29;100352.16;1703634;81;21120;-51
2022/05/10 08:21:15;;;;;;;4.42;1.42;;;;;;;14.24;28.83;100353.92;1702431;81;21085;-52
2022/05/10 08:23:42;;;;;;;5.58;1.47;;;;;;;14.26;28.79;100355.20;1707023;81;21427;-54
2022/05/10 08:26:08;;;;;;;5.55;2.25;;;;;;;14.25;28.78;100355.67;1702443;81;20947;-52
2022/05/10 08:28:35;;;;;;;5.97;2.05;;;;;;;14.23;28.85;100357.58;1677071;83;20914;-52
2022/05/10 08:31:04;;;;;;;5.17;1.22;;;;;;;14.25;28.79;100360.21;1708881;81;20879;-52
2022/05/10 08:33:33;;;;;;;6.78;1.50;;;;;;;14.27;29.17;100357.83;1675153;83;20932;-51
2022/05/10 08:36:00;;;;;;;3.70;1.20;;;;;;;14.30;28.64;100346.81;1671607;83;21425;-53
2022/05/10 08:38:28;;;;;;;6.30;1.30;;;;;;;14.34;28.74;100348.89;1669385;83;20910;-52
2022/05/10 08:41:11;;;;;;;3.22;1.25;;;;;;;14.37;28.62;100343.31;1673020;83;20929;-53
2022/05/10 08:44:14;;;;;;;2.15;1.00;;;;;;;14.43;28.97;100346.19;1699834;81;21381;-52
2022/05/10 08:46:46;;;;;;;2.20;0.82;;;;;;;14.47;29.20;100341.86;1676809;83;21354;-53
2022/05/10 08:49:17;;;;;;;2.22;0.78;;;;;;;14.51;28.94;100342.10;1678214;83;21053;-51
2022/05/10 08:51:44;;;;;;;3.90;1.62;;;;;;;14.55;29.00;100340.95;1676370;83;21392;-50
2022/05/10 08:54:10;;;;;;;11.28;4.85;;;;;;;14.54;28.82;100342.42;1677009;83;20902;-52
2022/05/10 08:56:46;;;;;;;12.47;5.12;;;;;;;14.52;27.90;100344.33;1678783;82;21085;-53
2022/05/10 08:59:32;;;;;;;9.95;4.08;;;;;;;14.42;27.88;100334.95;1672317;83;21877;-52
2022/05/10 09:02:06;;;;;;;9.80;4.58;;;;;;;14.39;28.13;100333.28;1673489;83;21357;-52
2022/05/10 09:04:56;;;;;;;7.58;3.77;;;;;;;14.39;28.35;100327.39;1677560;83;20950;-53
2022/05/10 09:08:05;;;;;;;11.95;3.58;;;;;;;14.40;28.37;100317.42;1708239;81;20906;-53
2022/05/10 09:10:52;;;;;;;13.03;4.17;;;;;;;14.48;28.87;100314.30;1701462;81;21067;-53
2022/05/10 09:13:20;;;;;;;9.60;3.50;;;;;;;14.61;29.16;100302.71;1670369;83;21121;-51
2022/05/10 09:16:01;;;;;;;6.35;3.00;;;;;;;14.76;29.40;100320.81;1705445;81;21736;-52
2022/05/10 09:18:37;;;;;;;9.25;3.22;;;;;;;14.85;28.84;100323.95;1671011;83;21463;-51
2022/05/10 09:21:26;;;;;;;;;;;;;;;14.85;28.62;100315.34;1676423;83;21032;-54
2022/05/10 09:24:23;;;;;;;5.83;2.22;;;;;;;14.84;29.09;100306.82;1649312;84;20469;-51
2022/05/10 09:27:05;;;;;;;4.25;1.70;;;;;;;14.90;29.42;100294.74;1664445;85;21053;-52
2022/05/10 09:29:49;;;;;;;3.98;1.57;;;;;;;15.05;29.72;100285.27;1661084;85;21798;-52
2022/05/10 09:35:14;;;;;;;1.95;0.75;;;;;;;15.91;73.92;100291.86;1662714;84;21141;-54
2022/05/10 09:38:02;;;;;;;1.92;0.53;;;;;;;16.17;85.96;100282.97;1660016;84;21306;-52
2022/05/10 09:40:48;;;;;;;3.15;0.62;;;;;;;16.77;85.70;100275.09;1661898;84;20896;-53
2022/05/10 09:43:25;;;;;;;1.90;0.85;;;;;;;15.92;67.38;100279.16;1658345;84;22343;-54
2022/05/10 09:46:19;;;;;;;1.17;0.68;;;;;;;16.12;72.39;100263.38;1660194;84;21571;-52
2022/05/10 09:48:47;;;;;;;3.30;0.60;;;;;;;15.56;63.29;100270.09;1662965;84;21073;-53
2022/05/10 09:51:39;;;;;;;1.00;0.50;;;;;;;15.42;43.07;100269.52;1661724;84;21303;-53
2022/05/10 09:54:22;;;;;;;2.67;0.60;;;;;;;15.46;40.98;100259.77;1662726;84;21465;-55
2022/05/10 09:57:57;;;;;;;1.00;0.40;;;;;;;17.24;100.00;100360.37;1570259;84;985315;-52
2022/05/10 10:02:07;;;;;;;3.00;0.50;;;;;;;17.24;100.00;100360.37;1481109;84;975519;-54
2022/05/10 10:04:48;;;;;;;0.80;0.30;;;;;;;17.24;100.00;100360.37;1468153;81;975541;-52
2022/05/10 10:07:20;;;;;;;1.13;0.30;;;;;;;17.24;100.00;100360.37;1535910;81;975440;-54
2022/05/10 10:09:55;;;;;;;0.85;0.40;;;;;;;16.76;100.00;100311.43;1529184;81;984861;-52
2022/05/10 10:13:37;;;;;;;0.60;0.40;;;;;;;16.76;100.00;100311.43;1469075;81;985063;-53
2022/05/10 10:18:51;;;;;;;2.58;0.40;;;;;;;16.76;100.00;100311.43;1426009;84;984356;-54
2022/05/10 10:21:32;;;;;;;2.47;0.40;;;;;;;16.76;100.00;100311.43;1589297;81;975239;-54
2022/05/10 10:52:47;;;;;;;0.90;0.50;;;;;;;16.40;100.00;99814.25;1473938;81;985141;-53
2022/05/10 10:55:19;;;;;;;0.94;0.52;;;;;;;16.40;100.00;99814.25;1468042;81;985330;-54
2022/05/10 10:58:06;;;;;;;1.17;0.63;;;;;;;16.40;100.00;99814.25;1448352;83;985045;-53
2022/05/10 12:03:12;;;;;;;1.00;0.60;;;;;;;16.40;100.00;99814.25;1444627;83;985120;-53
2022/05/10 12:24:02;;;;;;;1.45;0.60;;;;;;;16.40;100.00;99814.25;1442920;83;975391;-51
2022/05/10 12:29:45;;;;;;;3.27;0.80;;;;;;;16.40;100.00;99814.25;1469624;81;978771;-54
2022/05/10 12:41:39;;;;;;;1.57;0.50;;;;;;;16.40;100.00;99814.25;1467920;81;977659;-53
2022/05/10 12:47:25;;;;;;;1.40;0.68;;;;;;;16.40;100.00;99814.25;1471647;83;984803;-53
2022/05/10 12:51:02;;;;;;;1.87;0.98;;;;;;;16.40;100.00;99814.25;1532476;83;984978;-52
2022/05/10 12:53:49;;;;;;;2.45;0.40;;;;;;;16.40;100.00;99814.25;1675805;83;21536;-54
2022/05/10 12:56:39;;;;;;;0.78;0.30;;;;;;;15.94;100.00;109430.09;1674002;82;21041;-54
2022/05/10 12:59:37;;;;;;;1.50;0.30;;;;;;;16.03;100.00;109739.34;1706733;81;21097;-53
2022/05/10 13:02:04;;;;;;;1.57;0.30;;;;;;;16.95;100.00;110493.22;1676195;83;21831;-53
2022/05/10 13:04:32;;;;;;;0.82;0.35;;;;;;;16.05;100.00;110321.97;1705389;81;20978;-55
2022/05/10 13:07:28;;;;;;;1.75;0.20;;;;;;;15.88;100.00;110473.72;1705405;81;21091;-56
2022/05/10 13:09:58;;;;;;;1.10;0.28;;;;;;;15.88;100.00;110473.72;1703665;81;21026;-55
2022/05/10 13:12:29;;;;;;;0.60;0.30;;;;;;;15.89;100.00;110497.81;1705562;81;21102;-55
2022/05/10 13:15:10;;;;;;;0.47;0.33;;;;;;;16.77;100.00;110963.39;1703871;81;21831;-53
2022/05/10 13:17:37;;;;;;;1.70;0.37;;;;;;;16.49;100.00;110893.78;1704565;81;21463;-54
2022/05/10 13:20:10;;;;;;;0.78;0.40;;;;;;;16.39;100.00;100448.23;1704043;81;21465;-55
2022/05/10 13:22:37;;;;;;;0.60;0.40;;;;;;;16.36;100.00;99831.72;1708486;81;21584;-54
2022/05/10 13:25:06;;;;;;;0.70;0.50;;;;;;;16.35;100.00;99967.16;1674001;83;21696;-52
2022/05/10 13:36:57;;;;;;;2.47;0.43;;;;;;;16.11;100.00;99992.79;1628260;83;984499;-55
2022/05/10 13:48:39;;;;;;;1.72;0.50;;;;;;;16.11;100.00;99992.79;1444221;83;975465;-53
2022/05/10 13:52:04;;;;;;;4.47;1.37;;;;;;;16.11;100.00;99992.79;1497911;81;975057;-55
2022/05/10 14:04:19;;;;;;;2.30;1.40;;;;;;;16.11;100.00;99992.79;1534923;81;984628;-55
2022/05/10 14:06:57;;;;;;;3.83;1.15;;;;;;;16.11;100.00;99992.79;1700354;81;34441;-54
2022/05/10 14:09:29;;;;;;;;;;;;;;;16.01;100.00;99950.93;1677721;83;20922;-55
2022/05/10 14:11:57;;;;;;;2.60;1.27;;;;;;;16.08;100.00;99941.88;1651187;84;21265;-54
2022/05/10 14:14:26;;;;;;;3.47;1.32;;;;;;;16.08;100.00;99933.25;1656779;84;20908;-54
2022/05/10 14:16:52;;;;;;;7.10;2.30;;;;;;;16.08;100.00;99936.45;1707348;81;20915;-53
2022/05/10 14:19:28;;;;;;;5.87;2.65;;;;;;;15.95;100.00;99959.98;1707142;81;21361;-55
2022/05/10 14:21:54;;;;;;;5.55;2.83;;;;;;;16.36;100.00;99943.09;1675371;83;20976;-54
2022/05/10 14:24:22;;;;;;;9.68;4.03;;;;;;;16.33;100.00;99942.46;1674356;83;21526;-55
2022/05/10 14:26:51;;;;;;;6.20;3.20;;;;;;;16.33;100.00;99942.46;1704506;81;20873;-55
2022/05/10 14:29:27;;;;;;;6.55;3.30;;;;;;;16.19;100.00;99948.81;1697766;82;20915;-54
2022/05/10 14:31:58;;;;;;;8.28;4.08;;;;;;;16.12;100.00;99937.52;1667141;84;20938;-55
2022/05/10 14:34:53;;;;;;;6.87;3.87;;;;;;;16.80;100.00;99933.72;1667323;84;20916;-54
2022/05/10 14:37:26;;;;;;;6.72;3.92;;;;;;;16.80;100.00;99933.72;1693852;82;21613;-54
2022/05/10 14:39:55;;;;;;;4.67;3.27;;;;;;;16.39;100.00;99928.44;1695279;82;21503;-55
2022/05/10 14:42:30;;;;;;;5.15;3.02;;;;;;;16.05;100.00;99913.59;1697826;82;21468;-55
2022/05/10 14:45:22;;;;;;;5.08;3.17;;;;;;;16.05;100.00;99913.59;1664997;84;21024;-53